Observation data for Seagraves on 02/10/2018      Previous  Date  Next       Current Mesonet Observations  Soil Data  Daily Summary Page  Observations in Plain Language
KSGV 100600Z 08004KT 09/M01 A299 RMK A01 T00901005  RH  052%=      5-min Rain = 0
KSGV 100605Z 09004KT 09/M01 A299 RMK A01 T00881005  RH  052%=      5-min Rain = 0
KSGV 100610Z 07004KT 08/M01 A299 RMK A01 T00841008  RH  053%=      5-min Rain = 0
KSGV 100615Z 05004KT 08/M01 A299 RMK A01 T00811008  RH  054%=      5-min Rain = 0
KSGV 100620Z 03004KT 08/M01 A299 RMK A01 T00791007  RH  055%=      5-min Rain = 0
KSGV 100625Z 05005KT 08/M01 A299 RMK A01 T00761011  RH  055%=      5-min Rain = 0
KSGV 100630Z 05005KT 07/M02 A299 RMK A01 T00731016  RH  054%=      5-min Rain = 0
KSGV 100635Z 05004KT 07/M02 A299 RMK A01 T00701019  RH  053%=      5-min Rain = 0
KSGV 100640Z 05005KT 07/M03 A299 RMK A01 T00671025  RH  052%=      5-min Rain = 0
KSGV 100645Z 07005KT 06/M03 A299 RMK A01 T00641030  RH  051%=      5-min Rain = 0
KSGV 100650Z 08005KT 06/M04 A299 RMK A01 T00621036  RH  050%=      5-min Rain = 0
KSGV 100655Z 08005KT 06/M04 A299 RMK A01 T00581039  RH  050%=      5-min Rain = 0
KSGV 100700Z 08006KT 06/M04 A299 RMK A01 T00561041  RH  050%=      5-min Rain = 0
KSGV 100705Z 08007KT 06/M04 A299 RMK A01 T00551042  RH  050%=      5-min Rain = 0
KSGV 100710Z 08006KT 05/M04 A2989 RMK A01 T00541043  RH  050%=      5-min Rain = 0
KSGV 100715Z 08005KT 05/M04 A2989 RMK A01 T00531043  RH  050%=      5-min Rain = 0
KSGV 100720Z 09007KT 05/M04 A2989 RMK A01 T00521044  RH  051%=      5-min Rain = 0
KSGV 100725Z 09006KT 05/M04 A2989 RMK A01 T00501044  RH  051%=      5-min Rain = 0
KSGV 100730Z 09006KT 05/M04 A2989 RMK A01 T00491043  RH  052%=      5-min Rain = 0
KSGV 100735Z 09006KT 05/M04 A2989 RMK A01 T00481044  RH  052%=      5-min Rain = 0
KSGV 100740Z 09005KT 05/M05 A2989 RMK A01 T00471045  RH  052%=      5-min Rain = 0
KSGV 100745Z 09006KT 05/M05 A2989 RMK A01 T00451045  RH  053%=      5-min Rain = 0
KSGV 100750Z 09007KT 04/M05 A2989 RMK A01 T00441045  RH  053%=      5-min Rain = 0
KSGV 100755Z 09006KT 04/M05 A2989 RMK A01 T00421046  RH  053%=      5-min Rain = 0
KSGV 100800Z 10005KT 04/M05 A2989 RMK A01 T00411046  RH  054%=      5-min Rain = 0
KSGV 100805Z 10005KT 04/M05 A2989 RMK A01 T00401045  RH  054%=      5-min Rain = 0
KSGV 100810Z 11005KT 04/M04 A2989 RMK A01 T00391044  RH  055%=      5-min Rain = 0
KSGV 100815Z 10005KT 04/M04 A2989 RMK A01 T00381044  RH  056%=      5-min Rain = 0
KSGV 100820Z 08004KT 04/M05 A2989 RMK A01 T00361045  RH  056%=      5-min Rain = 0
KSGV 100825Z 06006KT 04/M05 A299 RMK A01 T00351045  RH  056%=      5-min Rain = 0
KSGV 100830Z 04010G15KT 04/M05 A2991 RMK A01 T00361047  RH  055%=      5-min Rain = 0
KSGV 100835Z 05009G15KT 04/M05 A2991 RMK A01 T00351050  RH  054%=      5-min Rain = 0
KSGV 100840Z 04010G16KT 04/M05 A2991 RMK A01 T00351052  RH  054%=      5-min Rain = 0
KSGV 100845Z 04008KT 03/M05 A2992 RMK A01 T00331054  RH  054%=      5-min Rain = 0
KSGV 100850Z 03012G19KT 03/M06 A2992 RMK A01 T00301055  RH  054%=      5-min Rain = 0
KSGV 100855Z 04011G17KT 03/M06 A2992 RMK A01 T00281056  RH  054%=      5-min Rain = 0
KSGV 100900Z 05010G16KT 03/M06 A2992 RMK A01 T00251059  RH  055%=      5-min Rain = 0
KSGV 100905Z 04012G18KT 02/M06 A2992 RMK A01 T00221061  RH  055%=      5-min Rain = 0
KSGV 100910Z 04011G16KT 02/M06 A2992 RMK A01 T00191061  RH  056%=      5-min Rain = 0
KSGV 100915Z 04012G17KT 02/M06 A2993 RMK A01 T00171062  RH  056%=      5-min Rain = 0
KSGV 100920Z 05010G15KT 02/M06 A2993 RMK A01 T00161063  RH  056%=      5-min Rain = 0
KSGV 100925Z 04009G15KT 01/M06 A2993 RMK A01 T00141064  RH  057%=      5-min Rain = 0
KSGV 100930Z 04011G17KT 01/M07 A2993 RMK A01 T00121065  RH  057%=      5-min Rain = 0
KSGV 100935Z 05011G16KT 01/M07 A2993 RMK A01 T00111067  RH  057%=      5-min Rain = 0
KSGV 100940Z 05011G17KT 01/M07 A2993 RMK A01 T00091068  RH  057%=      5-min Rain = 0
KSGV 100945Z 05009G14KT 01/M07 A2993 RMK A01 T00071069  RH  057%=      5-min Rain = 0
KSGV 100950Z 04010G17KT 01/M07 A2994 RMK A01 T00061071  RH  057%=      5-min Rain = 0
KSGV 100955Z 04011G16KT 00/M07 A2994 RMK A01 T00041073  RH  057%=      5-min Rain = 0
KSGV 101000Z 04010G15KT 00/M07 A2994 RMK A01 T00021074  RH  057%=      5-min Rain = 0
KSGV 101005Z 04008G13KT 00/08 A2994 RMK A01 T00000-75  RH  058%=      5-min Rain = 0
KSGV 101010Z 04012G17KT M00/M08 A2994 RMK A01 T10021076  RH  058%=      5-min Rain = 0
KSGV 101015Z 04011G19KT M00/M08 A2994 RMK A01 T10041079  RH  058%=      5-min Rain = 0
KSGV 101020Z 04011G17KT M01/M08 A2994 RMK A01 T10061080  RH  058%=      5-min Rain = 0
KSGV 101025Z 03010G15KT M01/M08 A2995 RMK A01 T10091082  RH  058%=      5-min Rain = 0
KSGV 101030Z 03013G18KT M01/M08 A2995 RMK A01 T10121084  RH  059%=      5-min Rain = 0
KSGV 101035Z 03010G16KT M01/M09 A2995 RMK A01 T10141085  RH  059%=      5-min Rain = 0
KSGV 101040Z 03010G15KT M02/M09 A2995 RMK A01 T10161086  RH  060%=      5-min Rain = 0
KSGV 101045Z 04011G17KT M02/M09 A2995 RMK A01 T10181087  RH  060%=      5-min Rain = 0
KSGV 101050Z 03010G15KT M02/M09 A2995 RMK A01 T10201089  RH  060%=      5-min Rain = 0
KSGV 101055Z 03012G18KT M02/M09 A2996 RMK A01 T10231091  RH  060%=      5-min Rain = 0
KSGV 101100Z 04013G20KT M03/M09 A2996 RMK A01 T10251092  RH  061%=      5-min Rain = 0
KSGV 101105Z 03013G18KT M03/M09 A2996 RMK A01 T10261092  RH  061%=      5-min Rain = 0
KSGV 101110Z 04012G17KT M03/M09 A2996 RMK A01 T10281094  RH  062%=      5-min Rain = 0
KSGV 101115Z 03011G17KT M03/M10 A2997 RMK A01 T10301095  RH  062%=      5-min Rain = 0
KSGV 101120Z 03010G16KT M03/M10 A2997 RMK A01 T10321095  RH  062%=      5-min Rain = 0
KSGV 101125Z 02013G19KT M03/M10 A2997 RMK A01 T10331095  RH  063%=      5-min Rain = 0
KSGV 101130Z 03014G19KT M04/M10 A2997 RMK A01 T10351097  RH  063%=      5-min Rain = 0
KSGV 101135Z 03013G19KT M04/M10 A2997 RMK A01 T10361098  RH  063%=      5-min Rain = 0
KSGV 101140Z 03012G17KT M04/M10 A2997 RMK A01 T10381099  RH  064%=      5-min Rain = 0
KSGV 101145Z 03012KT M04/M10 A2997 RMK A01 T10391099  RH  064%=      5-min Rain = 0
KSGV 101150Z 03010KT M04/M10 A2997 RMK A01 T10401099  RH  064%=      5-min Rain = 0
KSGV 101155Z 03013G19KT M04/M10 A2997 RMK A01 T10421101  RH  065%=      5-min Rain = 0
KSGV 101200Z 02014KT M04/M10 A2998 RMK A01 T10441102  RH  065%=      5-min Rain = 0
KSGV 101205Z 03013KT M05/M10 A2998 RMK A01 T10461104  RH  065%=      5-min Rain = 0
KSGV 101210Z 03013KT M05/M10 A2998 RMK A01 T10471104  RH  065%=      5-min Rain = 0
KSGV 101215Z 03015G22KT M05/M11 A2998 RMK A01 T10481106  RH  065%=      5-min Rain = 0
KSGV 101220Z 03014G19KT M05/M11 A2998 RMK A01 T10501107  RH  065%=      5-min Rain = 0
KSGV 101225Z 03014KT M05/M11 A2999 RMK A01 T10521108  RH  065%=      5-min Rain = 0
KSGV 101230Z 03012G18KT M05/M11 A2999 RMK A01 T10531109  RH  066%=      5-min Rain = 0
KSGV 101235Z 02012KT M06/M11 A2999 RMK A01 T10551110  RH  066%=      5-min Rain = 0
KSGV 101240Z 02013G18KT M06/M11 A2999 RMK A01 T10571111  RH  066%=      5-min Rain = 0
KSGV 101245Z 02012KT M06/M11 A2999 RMK A01 T10591112  RH  067%=      5-min Rain = 0
KSGV 101250Z 02013G21KT M06/M11 A2999 RMK A01 T10601113  RH  067%=      5-min Rain = 0
KSGV 101255Z 02013G19KT M06/M11 A2999 RMK A01 T10621113  RH  068%=      5-min Rain = 0
KSGV 101300Z 02014G19KT M06/M11 A2999 RMK A01 T10631114  RH  068%=      5-min Rain = 0
KSGV 101305Z 03014KT M06/M11 A30 RMK A01 T10641114  RH  069%=      5-min Rain = 0
KSGV 101310Z 03013KT M07/M11 A30 RMK A01 T10651114  RH  069%=      5-min Rain = 0
KSGV 101315Z 03013KT M07/M12 A30 RMK A01 T10651115  RH  069%=      5-min Rain = 0
KSGV 101320Z 03013G19KT M07/M12 A30 RMK A01 T10671116  RH  069%=      5-min Rain = 0
KSGV 101325Z 02013G18KT M07/M12 A30 RMK A01 T10691116  RH  070%=      5-min Rain = 0
KSGV 101330Z 02013G18KT M07/M12 A30 RMK A01 T10701116  RH  071%=      5-min Rain = 0
KSGV 101335Z 03012G18KT M07/M12 A30 RMK A01 T10711116  RH  071%=      5-min Rain = 0
KSGV 101340Z 02012G17KT M07/M12 A30 RMK A01 T10721117  RH  071%=      5-min Rain = 0
KSGV 101345Z 02013G18KT M07/M12 A3001 RMK A01 T10731117  RH  071%=      5-min Rain = 0
KSGV 101350Z 02013G19KT M07/M12 A3001 RMK A01 T10741117  RH  072%=      5-min Rain = 0
KSGV 101355Z 02013KT M08/M12 A3001 RMK A01 T10751117  RH  073%=      5-min Rain = 0
KSGV 101400Z 03014G20KT M08/M12 A3001 RMK A01 T10751116  RH  073%=      5-min Rain = 0
KSGV 101405Z 02014G19KT M08/M12 A3001 RMK A01 T10751116  RH  073%=      5-min Rain = 0
KSGV 101410Z 02012G17KT M07/M12 A3001 RMK A01 T10741116  RH  073%=      5-min Rain = 0
KSGV 101415Z 02011G19KT M07/M12 A3001 RMK A01 T10731116  RH  072%=      5-min Rain = 0
KSGV 101420Z 02013G18KT M07/M12 A3001 RMK A01 T10731116  RH  072%=      5-min Rain = 0
KSGV 101425Z 02013KT M07/M12 A3001 RMK A01 T10721116  RH  072%=      5-min Rain = 0
KSGV 101430Z 02011KT M07/M12 A3001 RMK A01 T10711115  RH  072%=      5-min Rain = 0
KSGV 101435Z 01013G19KT M07/M11 A3001 RMK A01 T10701114  RH  071%=      5-min Rain = 0
KSGV 101440Z 01013G18KT M07/M11 A3001 RMK A01 T10691114  RH  071%=      5-min Rain = 0
KSGV 101445Z 02013G18KT M07/M11 A3002 RMK A01 T10681113  RH  071%=      5-min Rain = 0
KSGV 101450Z 01012G17KT M07/M11 A3001 RMK A01 T10661112  RH  071%=      5-min Rain = 0
KSGV 101455Z 02011G17KT M07/M11 A3002 RMK A01 T10651112  RH  070%=      5-min Rain = 0
KSGV 101500Z 02011KT M06/M11 A3002 RMK A01 T10631111  RH  070%=      5-min Rain = 0
KSGV 101505Z 02010KT M06/M11 A3002 RMK A01 T10611110  RH  069%=      5-min Rain = 0
KSGV 101510Z 02011G16KT M06/M11 A3002 RMK A01 T10601110  RH  069%=      5-min Rain = 0
KSGV 101515Z 02011KT M06/M11 A3002 RMK A01 T10601109  RH  069%=      5-min Rain = 0
KSGV 101520Z 02011KT M06/M11 A3002 RMK A01 T10571108  RH  068%=      5-min Rain = 0
KSGV 101525Z 02011G16KT M06/M11 A3002 RMK A01 T10571108  RH  068%=      5-min Rain = 0
KSGV 101530Z 02011KT M06/M11 A3002 RMK A01 T10581108  RH  069%=      5-min Rain = 0
KSGV 101535Z 02010KT M05/M11 A3002 RMK A01 T10541105  RH  068%=      5-min Rain = 0
KSGV 101540Z 02011KT M05/M10 A3002 RMK A01 T10491104  RH  066%=      5-min Rain = 0
KSGV 101545Z 02011G17KT M05/M11 A3002 RMK A01 T10481105  RH  065%=      5-min Rain = 0
KSGV 101550Z 02011KT M05/M11 A3002 RMK A01 T10461105  RH  064%=      5-min Rain = 0
KSGV 101555Z 02012KT M05/M10 A3002 RMK A01 T10461104  RH  065%=      5-min Rain = 0
KSGV 101600Z 02011KT M04/M10 A3002 RMK A01 T10431103  RH  064%=      5-min Rain = 0
KSGV 101605Z 03010KT M04/M10 A3002 RMK A01 T10401102  RH  063%=      5-min Rain = 0
KSGV 101610Z 02010KT M04/M10 A3002 RMK A01 T10361101  RH  061%=      5-min Rain = 0
KSGV 101615Z 01010KT M04/M10 A3001 RMK A01 T10351101  RH  061%=      5-min Rain = 0
KSGV 101620Z 03009KT M03/M10 A3001 RMK A01 T10331101  RH  060%=      5-min Rain = 0
KSGV 101625Z 02009KT M03/M10 A3001 RMK A01 T10291100  RH  059%=      5-min Rain = 0
KSGV 101630Z 02009KT M03/M10 A3001 RMK A01 T10271099  RH  058%=      5-min Rain = 0
KSGV 101635Z 02009KT M02/M10 A30 RMK A01 T10241099  RH  057%=      5-min Rain = 0
KSGV 101640Z 03009KT M02/M10 A30 RMK A01 T10211099  RH  056%=      5-min Rain = 0
KSGV 101645Z 02009G15KT M02/M10 A30 RMK A01 T10201099  RH  055%=      5-min Rain = 0
KSGV 101650Z 01010KT M02/M10 A3001 RMK A01 T10191097  RH  056%=      5-min Rain = 0
KSGV 101655Z 02010KT M01/M10 A3001 RMK A01 T10141097  RH  054%=      5-min Rain = 0
KSGV 101700Z 01010G15KT M01/M10 A30 RMK A01 T10121095  RH  054%=      5-min Rain = 0
KSGV 101705Z 03009G14KT M01/M10 A30 RMK A01 T10111095  RH  054%=      5-min Rain = 0
KSGV 101710Z 02008KT M01/M09 A30 RMK A01 T10081094  RH  053%=      5-min Rain = 0
KSGV 101715Z 02009KT M01/M10 A2999 RMK A01 T10081095  RH  053%=      5-min Rain = 0
KSGV 101720Z 02008KT M00/M09 A2999 RMK A01 T10021092  RH  051%=      5-min Rain = 0
KSGV 101725Z 04007KT M00/M09 A2999 RMK A01 T10021092  RH  051%=      5-min Rain = 0
KSGV 101730Z 04006KT 00/M09 A2999 RMK A01 T00011091  RH  050%=      5-min Rain = 0
KSGV 101735Z 05005G11KT 00/M09 A2999 RMK A01 T00021090  RH  051%=      5-min Rain = 0
KSGV 101740Z 03006KT 01/M09 A2999 RMK A01 T00051090  RH  050%=      5-min Rain = 0
KSGV 101745Z 03006G13KT 01/M09 A2998 RMK A01 T00071089  RH  049%=      5-min Rain = 0
KSGV 101750Z 03006G15KT 01/M09 A2998 RMK A01 T00101089  RH  048%=      5-min Rain = 0
KSGV 101755Z 04006KT 01/M09 A2998 RMK A01 T00121088  RH  048%=      5-min Rain = 0
KSGV 101800Z 03006KT 01/M09 A2998 RMK A01 T00101087  RH  049%=      5-min Rain = 0
KSGV 101805Z 03005G10KT 01/M09 A2998 RMK A01 T00131086  RH  048%=      5-min Rain = 0
KSGV 101810Z 05006KT 02/M09 A2997 RMK A01 T00151086  RH  048%=      5-min Rain = 0
KSGV 101815Z 04004KT 02/M09 A2997 RMK A01 T00151085  RH  048%=      5-min Rain = 0
KSGV 101820Z 03006KT 02/M08 A2997 RMK A01 T00201084  RH  047%=      5-min Rain = 0
KSGV 101825Z 04004KT 02/M08 A2996 RMK A01 T00231084  RH  046%=      5-min Rain = 0
KSGV 101830Z 03004G9KT 02/M08 A2996 RMK A01 T00241084  RH  045%=      5-min Rain = 0
KSGV 101835Z 09005KT 03/M08 A2995 RMK A01 T00251084  RH  045%=      5-min Rain = 0
KSGV 101840Z 06005KT 02/M08 A2994 RMK A01 T00241082  RH  046%=      5-min Rain = 0
KSGV 101845Z 06005KT 03/M08 A2994 RMK A01 T00261082  RH  045%=      5-min Rain = 0
KSGV 101850Z 05006KT 03/M08 A2994 RMK A01 T00251082  RH  045%=      5-min Rain = 0
KSGV 101855Z 04005KT 03/M08 A2993 RMK A01 T00311081  RH  044%=      5-min Rain = 0
KSGV 101900Z 08004KT 03/M08 A2993 RMK A01 T00291082  RH  045%=      5-min Rain = 0
KSGV 101905Z 07005KT 03/M08 A2992 RMK A01 T00261080  RH  046%=      5-min Rain = 0
KSGV 101910Z 08005KT 03/M08 A2992 RMK A01 T00291080  RH  045%=      5-min Rain = 0
KSGV 101915Z 10004KT 03/M08 A2991 RMK A01 T00281079  RH  046%=      5-min Rain = 0
KSGV 101920Z 08005KT 03/M08 A2991 RMK A01 T00331079  RH  044%=      5-min Rain = 0
KSGV 101925Z 09004KT 03/M08 A2991 RMK A01 T00321079  RH  044%=      5-min Rain = 0
KSGV 101930Z 08003KT 03/M08 A299 RMK A01 T00341078  RH  044%=      5-min Rain = 0
KSGV 101935Z 08004KT 04/M08 A299 RMK A01 T00391079  RH  043%=      5-min Rain = 0
KSGV 101940Z 08005KT 04/M08 A299 RMK A01 T00371080  RH  042%=      5-min Rain = 0
KSGV 101945Z 06004KT 04/M08 A2989 RMK A01 T00361079  RH  043%=      5-min Rain = 0
KSGV 101950Z 02003KT 04/M08 A2989 RMK A01 T00361080  RH  043%=      5-min Rain = 0
KSGV 101955Z 10004KT 04/M08 A2989 RMK A01 T00411078  RH  042%=      5-min Rain = 0
KSGV 102000Z 10004KT 04/M08 A2989 RMK A01 T00411078  RH  042%=      5-min Rain = 0
KSGV 102005Z 09002G7KT 04/M08 A2989 RMK A01 T00401079  RH  042%=      5-min Rain = 0
KSGV 102010Z 11005KT 04/M08 A2988 RMK A01 T00401077  RH  043%=      5-min Rain = 0
KSGV 102015Z 14003KT 05/M08 A2987 RMK A01 T00451075  RH  042%=      5-min Rain = 0
KSGV 102020Z 15005KT 05/M08 A2987 RMK A01 T00521077  RH  039%=      5-min Rain = 0
KSGV 102025Z 14005KT 05/M08 A2986 RMK A01 T00521077  RH  039%=      5-min Rain = 0
KSGV 102030Z 17003KT 05/M08 A2986 RMK A01 T00501076  RH  040%=      5-min Rain = 0
KSGV 102035Z 17004KT 05/M08 A2986 RMK A01 T00541076  RH  039%=      5-min Rain = 0
KSGV 102040Z 11004KT 06/M08 A2985 RMK A01 T00561076  RH  039%=      5-min Rain = 0
KSGV 102045Z 12003KT 06/M08 A2985 RMK A01 T00581076  RH  038%=      5-min Rain = 0
KSGV 102050Z 12005KT 06/M08 A2985 RMK A01 T00561076  RH  039%=      5-min Rain = 0
KSGV 102055Z 09004KT 05/M08 A2984 RMK A01 T00531077  RH  039%=      5-min Rain = 0
KSGV 102100Z 11006KT 05/M08 A2984 RMK A01 T00511076  RH  040%=      5-min Rain = 0
KSGV 102105Z 11005KT 05/M08 A2984 RMK A01 T00491076  RH  040%=      5-min Rain = 0
KSGV 102110Z 10005KT 05/M08 A2984 RMK A01 T00481077  RH  040%=      5-min Rain = 0
KSGV 102115Z 13005KT 05/M08 A2984 RMK A01 T00491077  RH  040%=      5-min Rain = 0
KSGV 102120Z 15006KT 05/M08 A2983 RMK A01 T00511077  RH  040%=      5-min Rain = 0
KSGV 102125Z 14005KT 05/M08 A2983 RMK A01 T00521076  RH  040%=      5-min Rain = 0
KSGV 102130Z 13006KT 05/M08 A2983 RMK A01 T00531076  RH  039%=      5-min Rain = 0
KSGV 102135Z 13005KT 06/M08 A2983 RMK A01 T00591075  RH  038%=      5-min Rain = 0
KSGV 102140Z 13003KT 06/M08 A2983 RMK A01 T00621077  RH  036%=      5-min Rain = 0
KSGV 102145Z 09004KT 06/M08 A2983 RMK A01 T00601078  RH  037%=      5-min Rain = 0
KSGV 102150Z 12005KT 06/M08 A2982 RMK A01 T00571078  RH  038%=      5-min Rain = 0
KSGV 102155Z 12005KT 06/M08 A2982 RMK A01 T00561077  RH  038%=      5-min Rain = 0
KSGV 102200Z 14006KT 06/M08 A2982 RMK A01 T00561077  RH  038%=      5-min Rain = 0
KSGV 102205Z 15005KT 06/M08 A2982 RMK A01 T00561076  RH  039%=      5-min Rain = 0
KSGV 102210Z 14005KT 06/M08 A2982 RMK A01 T00571076  RH  038%=      5-min Rain = 0
KSGV 102215Z 15004KT 06/M07 A2981 RMK A01 T00581074  RH  038%=      5-min Rain = 0
KSGV 102220Z 14007KT 06/M07 A2981 RMK A01 T00581074  RH  038%=      5-min Rain = 0
KSGV 102225Z 15006KT 06/M07 A2981 RMK A01 T00581074  RH  039%=      5-min Rain = 0
KSGV 102230Z 15006KT 06/M07 A2981 RMK A01 T00591074  RH  038%=      5-min Rain = 0
KSGV 102235Z 13004KT 06/M07 A2981 RMK A01 T00631073  RH  038%=      5-min Rain = 0
KSGV 102240Z 13006KT 07/M07 A298 RMK A01 T00661074  RH  037%=      5-min Rain = 0
KSGV 102245Z 15005KT 07/M07 A2981 RMK A01 T00651074  RH  037%=      5-min Rain = 0
KSGV 102250Z 16007KT 07/M08 A2981 RMK A01 T00661075  RH  036%=      5-min Rain = 0
KSGV 102255Z 14005KT 07/M08 A2981 RMK A01 T00651075  RH  036%=      5-min Rain = 0
KSGV 102300Z 13004KT 06/M08 A2981 RMK A01 T00631075  RH  037%=      5-min Rain = 0
KSGV 102305Z 11006KT 06/M08 A2981 RMK A01 T00611075  RH  037%=      5-min Rain = 0
KSGV 102310Z 12006KT 06/M08 A2981 RMK A01 T00601075  RH  038%=      5-min Rain = 0
KSGV 102315Z 11007KT 06/M08 A2981 RMK A01 T00611077  RH  037%=      5-min Rain = 0
KSGV 102320Z 12007KT 06/M08 A298 RMK A01 T00641077  RH  036%=      5-min Rain = 0
KSGV 102325Z 13007KT 07/M08 A298 RMK A01 T00661078  RH  035%=      5-min Rain = 0
KSGV 102330Z 13007KT 07/M08 A298 RMK A01 T00671079  RH  035%=      5-min Rain = 0
KSGV 102335Z 12007G12KT 07/M08 A298 RMK A01 T00651079  RH  035%=      5-min Rain = 0
KSGV 102340Z 13007G12KT 06/M08 A298 RMK A01 T00641079  RH  035%=      5-min Rain = 0
KSGV 102345Z 12008KT 06/M08 A2979 RMK A01 T00621079  RH  036%=      5-min Rain = 0
KSGV 102350Z 12007KT 06/M08 A2979 RMK A01 T00581079  RH  037%=      5-min Rain = 0
KSGV 102355Z 13007KT 06/M08 A2979 RMK A01 T00571079  RH  037%=      5-min Rain = 0
KSGV 110000Z 13008KT 06/M08 A2979 RMK A01 T00561078  RH  038%=      5-min Rain = 0
KSGV 110005Z 14008KT 06/M08 A2979 RMK A01 T00561078  RH  038%=      5-min Rain = 0
KSGV 110010Z 13007KT 06/M08 A2978 RMK A01 T00561077  RH  038%=      5-min Rain = 0
KSGV 110015Z 13007G12KT 05/M08 A2978 RMK A01 T00541077  RH  039%=      5-min Rain = 0
KSGV 110020Z 13007KT 05/M08 A2978 RMK A01 T00521077  RH  039%=      5-min Rain = 0
KSGV 110025Z 13007G12KT 05/M08 A2979 RMK A01 T00501078  RH  040%=      5-min Rain = 0
KSGV 110030Z 13005KT 05/M08 A298 RMK A01 T00481078  RH  040%=      5-min Rain = 0
KSGV 110035Z 13007KT 05/M08 A2979 RMK A01 T00461078  RH  041%=      5-min Rain = 0
KSGV 110040Z 13006KT 05/M08 A2979 RMK A01 T00451077  RH  041%=      5-min Rain = 0
KSGV 110045Z 13006KT 04/M08 A298 RMK A01 T00431077  RH  042%=      5-min Rain = 0
KSGV 110050Z 13005KT 04/M08 A2979 RMK A01 T00421077  RH  042%=      5-min Rain = 0
KSGV 110055Z 12006KT 04/M08 A2979 RMK A01 T00401077  RH  043%=      5-min Rain = 0
KSGV 110100Z 13006KT 04/M08 A2979 RMK A01 T00391077  RH  043%=      5-min Rain = 0
KSGV 110105Z 12005KT 04/M08 A2979 RMK A01 T00371077  RH  044%=      5-min Rain = 0
KSGV 110110Z 13006KT 04/M08 A2979 RMK A01 T00351077  RH  044%=      5-min Rain = 0
KSGV 110115Z 13006KT 04/M08 A2979 RMK A01 T00351077  RH  044%=      5-min Rain = 0
KSGV 110120Z 13007KT 03/M08 A2979 RMK A01 T00331078  RH  045%=      5-min Rain = 0
KSGV 110125Z 13006KT 03/M08 A2979 RMK A01 T00331077  RH  045%=      5-min Rain = 0
KSGV 110130Z 13006KT 03/M08 A2979 RMK A01 T00321077  RH  045%=      5-min Rain = 0
KSGV 110135Z 13006G11KT 03/M08 A2979 RMK A01 T00301077  RH  046%=      5-min Rain = 0
KSGV 110140Z 13008G13KT 03/M08 A2979 RMK A01 T00311078  RH  045%=      5-min Rain = 0
KSGV 110145Z 14009KT 03/M08 A2979 RMK A01 T00301079  RH  045%=      5-min Rain = 0
KSGV 110150Z 14009KT 03/M08 A2979 RMK A01 T00281079  RH  046%=      5-min Rain = 0
KSGV 110155Z 14008KT 03/M08 A298 RMK A01 T00251077  RH  047%=      5-min Rain = 0
KSGV 110200Z 13007KT 02/M08 A298 RMK A01 T00221077  RH  048%=      5-min Rain = 0
KSGV 110205Z 13007KT 02/M08 A298 RMK A01 T00221076  RH  049%=      5-min Rain = 0
KSGV 110210Z 13007KT 02/M08 A2981 RMK A01 T00211076  RH  049%=      5-min Rain = 0
KSGV 110215Z 13007KT 02/M08 A2981 RMK A01 T00211076  RH  049%=      5-min Rain = 0
KSGV 110220Z 12006KT 02/M08 A2982 RMK A01 T00211076  RH  049%=      5-min Rain = 0
KSGV 110225Z 10005KT 02/M08 A2982 RMK A01 T00211075  RH  049%=      5-min Rain = 0
KSGV 110230Z 10005KT 02/M08 A2983 RMK A01 T00191076  RH  050%=      5-min Rain = 0
KSGV 110235Z 09006KT 02/M08 A2984 RMK A01 T00191076  RH  050%=      5-min Rain = 0
KSGV 110240Z 08006KT 02/M08 A2984 RMK A01 T00171075  RH  051%=      5-min Rain = 0
KSGV 110245Z 07006KT 02/M08 A2985 RMK A01 T00161076  RH  051%=      5-min Rain = 0
KSGV 110250Z 08006KT 02/M08 A2985 RMK A01 T00151077  RH  051%=      5-min Rain = 0
KSGV 110255Z 08006KT 01/M08 A2985 RMK A01 T00141079  RH  051%=      5-min Rain = 0
KSGV 110300Z 09006KT 01/M08 A2985 RMK A01 T00131081  RH  050%=      5-min Rain = 0
KSGV 110305Z 08005KT 01/M08 A2985 RMK A01 T00121082  RH  050%=      5-min Rain = 0
KSGV 110310Z 08006KT 01/M08 A2986 RMK A01 T00111083  RH  050%=      5-min Rain = 0
KSGV 110315Z 08007G12KT 01/M08 A2986 RMK A01 T00111083  RH  050%=      5-min Rain = 0
KSGV 110320Z 09008KT 01/M08 A2987 RMK A01 T00101082  RH  051%=      5-min Rain = 0
KSGV 110325Z 08008KT 01/M08 A2987 RMK A01 T00101082  RH  051%=      5-min Rain = 0
KSGV 110330Z 07007G12KT 01/M08 A2987 RMK A01 T00091084  RH  050%=      5-min Rain = 0
KSGV 110335Z 08008G15KT 01/M09 A2987 RMK A01 T00071085  RH  051%=      5-min Rain = 0
KSGV 110340Z 08008G13KT 01/M09 A2987 RMK A01 T00071085  RH  051%=      5-min Rain = 0
KSGV 110345Z 08008G15KT 01/M09 A2987 RMK A01 T00061085  RH  051%=      5-min Rain = 0
KSGV 110350Z 07009KT 01/M09 A2987 RMK A01 T00051087  RH  051%=      5-min Rain = 0
KSGV 110355Z 06009KT 00/M09 A2988 RMK A01 T00041088  RH  051%=      5-min Rain = 0
KSGV 110400Z 07010G15KT 00/M09 A2988 RMK A01 T00021089  RH  051%=      5-min Rain = 0
KSGV 110405Z 07010G15KT 00/M09 A2989 RMK A01 T00011090  RH  051%=      5-min Rain = 0
KSGV 110410Z 07011G16KT M00/M09 A2989 RMK A01 T10011092  RH  051%=      5-min Rain = 0
KSGV 110415Z 07010G16KT M00/M09 A2989 RMK A01 T10021093  RH  051%=      5-min Rain = 0
KSGV 110420Z 07010G16KT M00/M09 A2989 RMK A01 T10041094  RH  051%=      5-min Rain = 0
KSGV 110425Z 08011G18KT M01/M10 A2989 RMK A01 T10061096  RH  051%=      5-min Rain = 0
KSGV 110430Z 07010G16KT M01/M10 A299 RMK A01 T10081097  RH  052%=      5-min Rain = 0
KSGV 110435Z 07011G18KT M01/M10 A299 RMK A01 T10111099  RH  052%=      5-min Rain = 0
KSGV 110440Z 07011G19KT M01/M10 A299 RMK A01 T10131101  RH  052%=      5-min Rain = 0
KSGV 110445Z 07009G15KT M02/M10 A2991 RMK A01 T10151102  RH  052%=      5-min Rain = 0
KSGV 110450Z 07013G18KT M02/M10 A2991 RMK A01 T10171104  RH  052%=      5-min Rain = 0
KSGV 110455Z 07012G20KT M02/M11 A2991 RMK A01 T10191105  RH  053%=      5-min Rain = 0
KSGV 110500Z 07011G17KT M02/M11 A2991 RMK A01 T10211105  RH  053%=      5-min Rain = 0
KSGV 110505Z 07012G19KT M02/M11 A2991 RMK A01 T10221106  RH  053%=      5-min Rain = 0
KSGV 110510Z 07011G19KT M02/M11 A2992 RMK A01 T10231106  RH  054%=      5-min Rain = 0
KSGV 110515Z 06012G18KT M03/M11 A2992 RMK A01 T10251106  RH  054%=      5-min Rain = 0
KSGV 110520Z 07013G18KT M03/M11 A2993 RMK A01 T10271107  RH  055%=      5-min Rain = 0
KSGV 110525Z 07011G17KT M03/M11 A2993 RMK A01 T10281107  RH  055%=      5-min Rain = 0
KSGV 110530Z 07014G20KT M03/M11 A2993 RMK A01 T10291108  RH  055%=      5-min Rain = 0
KSGV 110535Z 07010G15KT M03/M11 A2993 RMK A01 T10301108  RH  056%=      5-min Rain = 0
KSGV 110540Z 06010G18KT M03/M11 A2994 RMK A01 T10311108  RH  056%=      5-min Rain = 0
KSGV 110545Z 06010G17KT M03/M11 A2994 RMK A01 T10311108  RH  056%=      5-min Rain = 0
KSGV 110550Z 06009G17KT M03/M11 A2994 RMK A01 T10321109  RH  056%=      5-min Rain = 0
KSGV 110555Z 06010G16KT M03/M11 A2994 RMK A01 T10331109  RH  056%=      5-min Rain = 0

Page generated in 0.0092 seconds.